Buoy 44906

sailwx.info

Track history (hours):
 
Tides and Currents Weather Stations Pressure Air Temp Water Temp Dewpoint Dewpoint Depression Visibility Wind Speed Wind Dir Waves Ship Positions

Drifting buoy 44906

Last reported at 2017-Nov-23 18:00 UTC. Time now 2017-Nov-23 20:38 UTC.
Position N 36°32' W 031°42'.

Water temperature 20.8 ° C

Date/timePositionNaut miles runAvg speedWind from/ knotsBaromVisibWave heightAir tempDewpointWater temp
2017-Nov-23 18:00N 36°32' W 031°42'0 0.0 20.8
2017-Nov-23 17:00N 36°32' W 031°42'0 0.0 20.8
2017-Nov-23 16:00N 36°32' W 031°42'2 2.0 20.4
2017-Nov-23 15:00N 36°31' W 031°41'0 0.0 20.7
2017-Nov-23 13:00N 36°31' W 031°41'1 1.0 20.8
2017-Nov-23 12:00N 36°31' W 031°40'2 1.6 20.9
2017-Nov-23 11:00N 36°31' W 031°38'0 0.0 20.9
2017-Nov-23 10:00N 36°31' W 031°38'1 0.6 20.9
2017-Nov-23 09:00N 36°32' W 031°38'2 1.9 20.9
2017-Nov-23 08:00N 36°33' W 031°40'1 0.4 20.9
2017-Nov-23 06:00N 36°32' W 031°40'4 3.6 21.0
2017-Nov-23 05:00N 36°31' W 031°44'0 0.0 21.0
2017-Nov-23 04:00N 36°31' W 031°44'2 0.5 21.0
2017-Nov-23 00:00N 36°32' W 031°42'0 0.0 21.0
2017-Nov-22 23:00N 36°32' W 031°42'1 1.1 21.0
2017-Nov-22 22:00N 36°32' W 031°43'1 1.0 21.0
2017-Nov-22 21:00N 36°32' W 031°42'0 0.0 21.0
2017-Nov-22 20:00N 36°32' W 031°42'1 0.6 21.0
2017-Nov-22 19:00N 36°33' W 031°42'1 0.8 21.0
2017-Nov-22 18:00N 36°34' W 031°43'0 0.0 21.0
2017-Nov-22 17:00N 36°34' W 031°43'0 0.0 21.0
2017-Nov-22 16:00N 36°34' W 031°43'1 0.3 21.0
2017-Nov-22 12:00N 36°33' W 031°41'1 0.6 21.0
2017-Nov-22 11:00N 36°34' W 031°41'1 0.8 21.0
2017-Nov-22 10:00N 36°34' W 031°41'1 1.2 21.0
2017-Nov-22 09:00N 36°35' W 031°41'1 1.0 21.0
2017-Nov-22 08:00N 36°35' W 031°40'1 0.8 21.0
2017-Nov-22 07:00N 36°35' W 031°40'1 1.1 21.0
2017-Nov-22 06:00N 36°35' W 031°41'0 0.5 21.0
2017-Nov-22 05:00N 36°35' W 031°41'0 0.0 21.0
2017-Nov-22 04:00N 36°35' W 031°41'1 0.2 21.0
2017-Nov-21 23:00N 36°34' W 031°41'2 1.5 21.0
2017-Nov-21 22:00N 36°35' W 031°42'1 1.2 21.0
2017-Nov-21 21:00N 36°34' W 031°42'2 2.3 21.0
2017-Nov-21 20:00N 36°35' W 031°40'1 1.3 21.0
2017-Nov-21 19:00N 36°37' W 031°40'1 1.0 21.0
2017-Nov-21 18:00N 36°37' W 031°41'0 0.0 21.0
2017-Nov-21 17:00N 36°37' W 031°41'0 0.0 21.0
2017-Nov-21 16:00N 36°37' W 031°41'1 1.0 21.0
2017-Nov-21 15:00N 36°37' W 031°43'0 0.2 21.0
2017-Nov-21 12:00N 36°37' W 031°42'0 0.5 21.0
2017-Nov-21 11:00N 36°37' W 031°41'1 1.1 21.0
2017-Nov-21 10:00N 36°37' W 031°43'0 0.0 21.0
2017-Nov-21 09:00N 36°37' W 031°43'1 1.0 21.0
2017-Nov-21 08:00N 36°37' W 031°41'1 0.6 21.0
2017-Nov-21 07:00N 36°38' W 031°41'0 0.0 21.0
2017-Nov-21 06:00N 36°38' W 031°41'1 0.8 21.0
2017-Nov-21 05:00N 36°38' W 031°41'0 0.0 21.0
2017-Nov-21 04:00N 36°38' W 031°41'0 0.0 21.0
2017-Nov-21 00:00N 36°38' W 031°41'0 0.0 21.1
2017-Nov-20 23:00N 36°38' W 031°41'0 0.0 21.1
2017-Nov-20 22:00N 36°38' W 031°41'1 0.6 21.1
2017-Nov-20 21:00N 36°39' W 031°41'0 0.0 21.1
2017-Nov-20 20:00N 36°39' W 031°41'0 0.0 21.1
2017-Nov-20 19:00N 36°39' W 031°41'1 0.6 21.1
2017-Nov-20 18:00N 36°40' W 031°41'0 0.0 21.1
2017-Nov-20 17:00N 36°40' W 031°41'0 0.0 21.1
2017-Nov-20 16:00N 36°40' W 031°41'0 0.5 21.1
2017-Nov-20 15:00N 36°40' W 031°41'0 0.0 21.1
2017-Nov-20 12:00N 36°40' W 031°41'0 0.0 21.1
2017-Nov-20 11:00N 36°40' W 031°41'1 0.8 21.1
2017-Nov-20 10:00N 36°39' W 031°41'0 0.0 21.1
2017-Nov-20 09:00N 36°39' W 031°41'1 1.0 21.1
2017-Nov-20 08:00N 36°39' W 031°40'1 1.1 21.1
2017-Nov-20 07:00N 36°40' W 031°38'1 1.0 21.1
2017-Nov-20 06:00N 36°40' W 031°40'1 0.6 21.1
2017-Nov-20 05:00N 36°40' W 031°40'2 0.3 21.1
2017-Nov-20 00:00N 36°40' W 031°41'2 1.6 21.1
2017-Nov-19 23:00N 36°40' W 031°40'2 1.5 21.1
2017-Nov-19 22:00N 36°39' W 031°38'2 2.3 21.1
2017-Nov-19 21:00N 36°40' W 031°41'0 0.0 21.1
2017-Nov-19 20:00N 36°40' W 031°41'0 0.5 21.1
2017-Nov-19 19:00N 36°40' W 031°41'1 1.0 21.1
2017-Nov-19 18:00N 36°40' W 031°40'0 0.0 21.1
2017-Nov-19 17:00N 36°40' W 031°40'0 0.0 21.1
2017-Nov-19 16:00N 36°40' W 031°40'2 0.8 21.1
2017-Nov-19 14:00N 36°40' W 031°42'0 0.0 21.0
2017-Nov-19 13:00N 36°40' W 031°42'1 1.3 21.0
2017-Nov-19 12:00N 36°38' W 031°43'2 1.9 21.0
2017-Nov-19 11:00N 36°37' W 031°42'1 1.3 21.0
2017-Nov-19 10:00N 36°38' W 031°43'0 0.0 21.0
2017-Nov-19 09:00N 36°38' W 031°43'0 0.5 21.0
2017-Nov-19 08:00N 36°38' W 031°42'1 1.0 21.0
2017-Nov-19 07:00N 36°38' W 031°41'1 1.1 21.0
2017-Nov-19 06:00N 36°38' W 031°42'2 1.9 21.0
2017-Nov-19 05:00N 36°38' W 031°44'0 0.0 21.0
2017-Nov-19 00:00N 36°38' W 031°44'1 1.3 21.0
2017-Nov-18 23:00N 36°37' W 031°44'1 1.0 21.0
2017-Nov-18 22:00N 36°37' W 031°45'0 0.5 21.0
2017-Nov-18 21:00N 36°37' W 031°44'1 0.8 21.0
2017-Nov-18 20:00N 36°37' W 031°44'1 0.6 21.0
2017-Nov-18 19:00N 36°36' W 031°44'2 0.8 21.1
2017-Nov-18 17:00N 36°37' W 031°43'1 0.4 21.1
2017-Nov-18 15:00N 36°38' W 031°42'0 0.2 21.1
2017-Nov-18 13:00N 36°38' W 031°43'1 0.8 21.1
2017-Nov-18 12:00N 36°38' W 031°42'1 1.2 21.0
2017-Nov-18 11:00N 36°40' W 031°42'2 1.8 21.0
2017-Nov-18 10:00N 36°38' W 031°42'1 0.8 21.0
2017-Nov-18 09:00N 36°38' W 031°41'0 0.0 21.0
2017-Nov-18 08:00N 36°38' W 031°41'0 0.0 21.0
2017-Nov-18 07:00N 36°38' W 031°41'2 2.3 21.0
2017-Nov-18 06:00N 36°37' W 031°44'0 0.0 21.0
2017-Nov-18 05:00N 36°37' W 031°44'0 0.0 21.0
2017-Nov-18 04:00N 36°37' W 031°44'0 0.0 21.0
2017-Nov-18 03:00N 36°37' W 031°44'0 0.2 21.0
2017-Nov-18 00:00N 36°37' W 031°43'1 0.6 21.0
2017-Nov-17 23:00N 36°37' W 031°43'2 1.6 21.0
2017-Nov-17 22:00N 36°37' W 031°45'2 1.9 21.0
2017-Nov-17 21:00N 36°36' W 031°43'0 0.5 21.0
2017-Nov-17 20:00N 36°36' W 031°43'0 0.0 21.1
2017-Nov-17 19:00N 36°36' W 031°43'0 0.0 21.1
2017-Nov-17 18:00N 36°36' W 031°43'0 0.0 21.1
2017-Nov-17 17:00N 36°36' W 031°43'1 0.8 21.1
2017-Nov-17 16:00N 36°37' W 031°43'0 0.0 21.1
2017-Nov-17 15:00N 36°37' W 031°43'2 1.2 21.1
2017-Nov-17 13:00N 36°37' W 031°46'2 1.9 21.1
2017-Nov-17 12:00N 36°37' W 031°44'2 1.9 21.1
2017-Nov-17 11:00N 36°35' W 031°46'1 0.8 21.1
2017-Nov-17 10:00N 36°35' W 031°46'1 1.2 21.2
2017-Nov-17 09:00N 36°34' W 031°46'0 0.0 21.2
2017-Nov-17 08:00N 36°34' W 031°46'2 2.0 21.2
2017-Nov-17 07:00N 36°33' W 031°44'1 0.8 21.2
2017-Nov-17 06:00N 36°34' W 031°43'0 0.0 21.2
2017-Nov-17 05:00N 36°34' W 031°43'0 0.0 21.2
2017-Nov-17 04:00N 36°34' W 031°43'0 0.0 21.2
2017-Nov-17 03:00N 36°34' W 031°43'0 0.0 21.2
2017-Nov-17 00:00N 36°34' W 031°43'0 0.5 21.2
2017-Nov-16 23:00N 36°34' W 031°44'0 0.0 21.2
2017-Nov-16 22:00N 36°34' W 031°44'0 0.0 21.2
2017-Nov-16 21:00N 36°34' W 031°44'0 0.5 21.2
2017-Nov-16 20:00N 36°34' W 031°43'0 0.5 21.2
2017-Nov-16 19:00N 36°34' W 031°44'1 1.0 21.3
2017-Nov-16 18:00N 36°34' W 031°43'0 0.5 21.3
2017-Nov-16 17:00N 36°34' W 031°43'1 0.6 21.3
2017-Nov-16 16:00N 36°34' W 031°43'0 0.0 21.3
2017-Nov-16 15:00N 36°34' W 031°43'0 0.0 21.2
2017-Nov-16 12:00N 36°34' W 031°43'0 0.5 21.2
2017-Nov-16 11:00N 36°34' W 031°44'1 0.8 21.2
2017-Nov-16 10:00N 36°34' W 031°44'1 0.8 21.2
2017-Nov-16 09:00N 36°33' W 031°45'2 1.9 21.2
2017-Nov-16 08:00N 36°33' W 031°43'0 0.0 21.2
2017-Nov-16 07:00N 36°33' W 031°43'1 1.1 21.2
2017-Nov-16 06:00N 36°34' W 031°41'2 0.3 21.2
2017-Nov-16 00:00N 36°35' W 031°41'0 0.5 21.2
2017-Nov-15 23:00N 36°35' W 031°41'1 0.8 21.2
2017-Nov-15 22:00N 36°36' W 031°41'1 1.1 21.2
2017-Nov-15 21:00N 36°35' W 031°42'1 1.0 21.2
2017-Nov-15 20:00N 36°35' W 031°41'1 1.0 21.3
2017-Nov-15 19:00N 36°35' W 031°42'0 0.0 21.3
2017-Nov-15 18:00N 36°35' W 031°42'1 1.0 21.3
2017-Nov-15 17:00N 36°35' W 031°41'0 0.0 21.3
2017-Nov-15 16:00N 36°35' W 031°41'0 0.0 21.3
2017-Nov-15 15:00N 36°35' W 031°41'1 0.6 21.3
2017-Nov-15 13:00N 36°36' W 031°40'0 0.0 21.2
2017-Nov-15 12:00N 36°36' W 031°40'1 0.8 21.2
2017-Nov-15 11:00N 36°37' W 031°40'0 0.0 21.2
2017-Nov-15 10:00N 36°37' W 031°40'1 1.0 21.2
2017-Nov-15 09:00N 36°37' W 031°39'0 0.0 21.2
2017-Nov-15 07:00N 36°37' W 031°39'1 0.8 21.2
2017-Nov-15 06:00N 36°37' W 031°38'0 0.0 21.2
2017-Nov-15 05:00N 36°37' W 031°38'2 2.4 21.2
2017-Nov-15 04:00N 36°40' W 031°38'0 0.0 21.2
2017-Nov-15 00:00N 36°40' W 031°38'1 1.1 21.3
2017-Nov-14 23:00N 36°40' W 031°37'1 0.8 21.3
2017-Nov-14 22:00N 36°41' W 031°36'2 1.5 21.4
2017-Nov-14 21:00N 36°40' W 031°37'0 0.0 21.5
2017-Nov-14 20:00N 36°40' W 031°37'0 0.0 21.6
2017-Nov-14 19:00N 36°40' W 031°37'1 0.8 21.8
2017-Nov-14 18:00N 36°39' W 031°37'0 0.0 21.9
2017-Nov-14 17:00N 36°39' W 031°37'1 0.6 22.3
2017-Nov-14 16:00N 36°40' W 031°37'0 0.0 22.2
2017-Nov-14 15:00N 36°40' W 031°37'2 1.0 21.9
2017-Nov-14 13:00N 36°40' W 031°34'0 0.5 21.3
2017-Nov-14 12:00N 36°40' W 031°34'2 1.5 21.2
2017-Nov-14 11:00N 36°41' W 031°32'0 0.0 21.2
2017-Nov-14 10:00N 36°41' W 031°32'1 1.0 21.2
2017-Nov-14 09:00N 36°41' W 031°34'1 1.0 21.2
2017-Nov-14 08:00N 36°41' W 031°32'0 0.0 21.2
2017-Nov-14 07:00N 36°41' W 031°32'0 0.5 21.2
2017-Nov-14 06:00N 36°41' W 031°33'1 0.5 21.2
2017-Nov-14 04:00N 36°41' W 031°32'0 0.0 21.2
2017-Nov-14 00:00N 36°41' W 031°32'1 0.6 21.2
2017-Nov-13 23:00N 36°42' W 031°32'1 1.3 21.2
2017-Nov-13 22:00N 36°41' W 031°31'1 0.6 21.2
2017-Nov-13 21:00N 36°41' W 031°31'1 0.6 21.2
2017-Nov-13 20:00N 36°41' W 031°31'1 1.1 21.2
2017-Nov-13 19:00N 36°40' W 031°30'1 0.6 21.2
2017-Nov-13 18:00N 36°41' W 031°30'   21.2
Track history (hours):
 
Tides and Currents Weather Stations Pressure Air Temp Water Temp Dewpoint Dewpoint Depression Visibility Wind Speed Wind Dir Waves Ship Positions

Drifting buoy 44906

Last reported at 2017-Nov-23 18:00 UTC. Time now 2017-Nov-23 20:38 UTC.
Position N 36°32' W 031°42'.

Water temperature 20.8 ° C

Date/timePositionNaut miles runAvg speedWind from/ knotsBaromVisibWave heightAir tempDewpointWater temp
2017-Nov-23 18:00N 36°32' W 031°42'0 0.0 20.8
2017-Nov-23 17:00N 36°32' W 031°42'0 0.0 20.8
2017-Nov-23 16:00N 36°32' W 031°42'2 2.0 20.4
2017-Nov-23 15:00N 36°31' W 031°41'0 0.0 20.7
2017-Nov-23 13:00N 36°31' W 031°41'1 1.0 20.8
2017-Nov-23 12:00N 36°31' W 031°40'2 1.6 20.9
2017-Nov-23 11:00N 36°31' W 031°38'0 0.0 20.9
2017-Nov-23 10:00N 36°31' W 031°38'1 0.6 20.9
2017-Nov-23 09:00N 36°32' W 031°38'2 1.9 20.9
2017-Nov-23 08:00N 36°33' W 031°40'1 0.4 20.9
2017-Nov-23 06:00N 36°32' W 031°40'4 3.6 21.0
2017-Nov-23 05:00N 36°31' W 031°44'0 0.0 21.0
2017-Nov-23 04:00N 36°31' W 031°44'2 0.5 21.0
2017-Nov-23 00:00N 36°32' W 031°42'0 0.0 21.0
2017-Nov-22 23:00N 36°32' W 031°42'1 1.1 21.0
2017-Nov-22 22:00N 36°32' W 031°43'1 1.0 21.0
2017-Nov-22 21:00N 36°32' W 031°42'0 0.0 21.0
2017-Nov-22 20:00N 36°32' W 031°42'1 0.6 21.0
2017-Nov-22 19:00N 36°33' W 031°42'1 0.8 21.0
2017-Nov-22 18:00N 36°34' W 031°43'0 0.0 21.0
2017-Nov-22 17:00N 36°34' W 031°43'0 0.0 21.0
2017-Nov-22 16:00N 36°34' W 031°43'1 0.3 21.0
2017-Nov-22 12:00N 36°33' W 031°41'1 0.6 21.0
2017-Nov-22 11:00N 36°34' W 031°41'1 0.8 21.0
2017-Nov-22 10:00N 36°34' W 031°41'1 1.2 21.0
2017-Nov-22 09:00N 36°35' W 031°41'1 1.0 21.0
2017-Nov-22 08:00N 36°35' W 031°40'1 0.8 21.0
2017-Nov-22 07:00N 36°35' W 031°40'1 1.1 21.0
2017-Nov-22 06:00N 36°35' W 031°41'0 0.5 21.0
2017-Nov-22 05:00N 36°35' W 031°41'0 0.0 21.0
2017-Nov-22 04:00N 36°35' W 031°41'1 0.2 21.0
2017-Nov-21 23:00N 36°34' W 031°41'2 1.5 21.0
2017-Nov-21 22:00N 36°35' W 031°42'1 1.2 21.0
2017-Nov-21 21:00N 36°34' W 031°42'2 2.3 21.0
2017-Nov-21 20:00N 36°35' W 031°40'1 1.3 21.0
2017-Nov-21 19:00N 36°37' W 031°40'1 1.0 21.0
2017-Nov-21 18:00N 36°37' W 031°41'0 0.0 21.0
2017-Nov-21 17:00N 36°37' W 031°41'0 0.0 21.0
2017-Nov-21 16:00N 36°37' W 031°41'1 1.0 21.0
2017-Nov-21 15:00N 36°37' W 031°43'0 0.2 21.0
2017-Nov-21 12:00N 36°37' W 031°42'0 0.5 21.0
2017-Nov-21 11:00N 36°37' W 031°41'1 1.1 21.0
2017-Nov-21 10:00N 36°37' W 031°43'0 0.0 21.0
2017-Nov-21 09:00N 36°37' W 031°43'1 1.0 21.0
2017-Nov-21 08:00N 36°37' W 031°41'1 0.6 21.0
2017-Nov-21 07:00N 36°38' W 031°41'0 0.0 21.0
2017-Nov-21 06:00N 36°38' W 031°41'1 0.8 21.0
2017-Nov-21 05:00N 36°38' W 031°41'0 0.0 21.0
2017-Nov-21 04:00N 36°38' W 031°41'0 0.0 21.0
2017-Nov-21 00:00N 36°38' W 031°41'0 0.0 21.1
2017-Nov-20 23:00N 36°38' W 031°41'0 0.0 21.1
2017-Nov-20 22:00N 36°38' W 031°41'1 0.6 21.1
2017-Nov-20 21:00N 36°39' W 031°41'0 0.0 21.1
2017-Nov-20 20:00N 36°39' W 031°41'0 0.0 21.1
2017-Nov-20 19:00N 36°39' W 031°41'1 0.6 21.1
2017-Nov-20 18:00N 36°40' W 031°41'0 0.0 21.1
2017-Nov-20 17:00N 36°40' W 031°41'0 0.0 21.1
2017-Nov-20 16:00N 36°40' W 031°41'0 0.5 21.1
2017-Nov-20 15:00N 36°40' W 031°41'0 0.0 21.1
2017-Nov-20 12:00N 36°40' W 031°41'0 0.0 21.1
2017-Nov-20 11:00N 36°40' W 031°41'1 0.8 21.1
2017-Nov-20 10:00N 36°39' W 031°41'0 0.0 21.1
2017-Nov-20 09:00N 36°39' W 031°41'1 1.0 21.1
2017-Nov-20 08:00N 36°39' W 031°40'1 1.1 21.1
2017-Nov-20 07:00N 36°40' W 031°38'1 1.0 21.1
2017-Nov-20 06:00N 36°40' W 031°40'1 0.6 21.1
2017-Nov-20 05:00N 36°40' W 031°40'2 0.3 21.1
2017-Nov-20 00:00N 36°40' W 031°41'2 1.6 21.1
2017-Nov-19 23:00N 36°40' W 031°40'2 1.5 21.1
2017-Nov-19 22:00N 36°39' W 031°38'2 2.3 21.1
2017-Nov-19 21:00N 36°40' W 031°41'0 0.0 21.1
2017-Nov-19 20:00N 36°40' W 031°41'0 0.5 21.1
2017-Nov-19 19:00N 36°40' W 031°41'1 1.0 21.1
2017-Nov-19 18:00N 36°40' W 031°40'0 0.0 21.1
2017-Nov-19 17:00N 36°40' W 031°40'0 0.0 21.1
2017-Nov-19 16:00N 36°40' W 031°40'2 0.8 21.1
2017-Nov-19 14:00N 36°40' W 031°42'0 0.0 21.0
2017-Nov-19 13:00N 36°40' W 031°42'1 1.3 21.0
2017-Nov-19 12:00N 36°38' W 031°43'2 1.9 21.0
2017-Nov-19 11:00N 36°37' W 031°42'1 1.3 21.0
2017-Nov-19 10:00N 36°38' W 031°43'0 0.0 21.0
2017-Nov-19 09:00N 36°38' W 031°43'0 0.5 21.0
2017-Nov-19 08:00N 36°38' W 031°42'1 1.0 21.0
2017-Nov-19 07:00N 36°38' W 031°41'1 1.1 21.0
2017-Nov-19 06:00N 36°38' W 031°42'2 1.9 21.0
2017-Nov-19 05:00N 36°38' W 031°44'0 0.0 21.0
2017-Nov-19 00:00N 36°38' W 031°44'1 1.3 21.0
2017-Nov-18 23:00N 36°37' W 031°44'1 1.0 21.0
2017-Nov-18 22:00N 36°37' W 031°45'0 0.5 21.0
2017-Nov-18 21:00N 36°37' W 031°44'1 0.8 21.0
2017-Nov-18 20:00N 36°37' W 031°44'1 0.6 21.0
2017-Nov-18 19:00N 36°36' W 031°44'2 0.8 21.1
2017-Nov-18 17:00N 36°37' W 031°43'1 0.4 21.1
2017-Nov-18 15:00N 36°38' W 031°42'0 0.2 21.1
2017-Nov-18 13:00N 36°38' W 031°43'1 0.8 21.1
2017-Nov-18 12:00N 36°38' W 031°42'1 1.2 21.0
2017-Nov-18 11:00N 36°40' W 031°42'2 1.8 21.0
2017-Nov-18 10:00N 36°38' W 031°42'1 0.8 21.0
2017-Nov-18 09:00N 36°38' W 031°41'0 0.0 21.0
2017-Nov-18 08:00N 36°38' W 031°41'0 0.0 21.0
2017-Nov-18 07:00N 36°38' W 031°41'2 2.3 21.0
2017-Nov-18 06:00N 36°37' W 031°44'0 0.0 21.0
2017-Nov-18 05:00N 36°37' W 031°44'0 0.0 21.0
2017-Nov-18 04:00N 36°37' W 031°44'0 0.0 21.0
2017-Nov-18 03:00N 36°37' W 031°44'0 0.2 21.0
2017-Nov-18 00:00N 36°37' W 031°43'1 0.6 21.0
2017-Nov-17 23:00N 36°37' W 031°43'2 1.6 21.0
2017-Nov-17 22:00N 36°37' W 031°45'2 1.9 21.0
2017-Nov-17 21:00N 36°36' W 031°43'0 0.5 21.0
2017-Nov-17 20:00N 36°36' W 031°43'0 0.0 21.1
2017-Nov-17 19:00N 36°36' W 031°43'0 0.0 21.1
2017-Nov-17 18:00N 36°36' W 031°43'0 0.0 21.1
2017-Nov-17 17:00N 36°36' W 031°43'1 0.8 21.1
2017-Nov-17 16:00N 36°37' W 031°43'0 0.0 21.1
2017-Nov-17 15:00N 36°37' W 031°43'2 1.2 21.1
2017-Nov-17 13:00N 36°37' W 031°46'2 1.9 21.1
2017-Nov-17 12:00N 36°37' W 031°44'2 1.9 21.1
2017-Nov-17 11:00N 36°35' W 031°46'1 0.8 21.1
2017-Nov-17 10:00N 36°35' W 031°46'1 1.2 21.2
2017-Nov-17 09:00N 36°34' W 031°46'0 0.0 21.2
2017-Nov-17 08:00N 36°34' W 031°46'2 2.0 21.2
2017-Nov-17 07:00N 36°33' W 031°44'1 0.8 21.2
2017-Nov-17 06:00N 36°34' W 031°43'0 0.0 21.2
2017-Nov-17 05:00N 36°34' W 031°43'0 0.0 21.2
2017-Nov-17 04:00N 36°34' W 031°43'0 0.0 21.2
2017-Nov-17 03:00N 36°34' W 031°43'0 0.0 21.2
2017-Nov-17 00:00N 36°34' W 031°43'0 0.5 21.2
2017-Nov-16 23:00N 36°34' W 031°44'0 0.0 21.2
2017-Nov-16 22:00N 36°34' W 031°44'0 0.0 21.2
2017-Nov-16 21:00N 36°34' W 031°44'0 0.5 21.2
2017-Nov-16 20:00N 36°34' W 031°43'0 0.5 21.2
2017-Nov-16 19:00N 36°34' W 031°44'1 1.0 21.3
2017-Nov-16 18:00N 36°34' W 031°43'0 0.5 21.3
2017-Nov-16 17:00N 36°34' W 031°43'1 0.6 21.3
2017-Nov-16 16:00N 36°34' W 031°43'0 0.0 21.3
2017-Nov-16 15:00N 36°34' W 031°43'0 0.0 21.2
2017-Nov-16 12:00N 36°34' W 031°43'0 0.5 21.2
2017-Nov-16 11:00N 36°34' W 031°44'1 0.8 21.2
2017-Nov-16 10:00N 36°34' W 031°44'1 0.8 21.2
2017-Nov-16 09:00N 36°33' W 031°45'2 1.9 21.2
2017-Nov-16 08:00N 36°33' W 031°43'0 0.0 21.2
2017-Nov-16 07:00N 36°33' W 031°43'1 1.1 21.2
2017-Nov-16 06:00N 36°34' W 031°41'2 0.3 21.2
2017-Nov-16 00:00N 36°35' W 031°41'0 0.5 21.2
2017-Nov-15 23:00N 36°35' W 031°41'1 0.8 21.2
2017-Nov-15 22:00N 36°36' W 031°41'1 1.1 21.2
2017-Nov-15 21:00N 36°35' W 031°42'1 1.0 21.2
2017-Nov-15 20:00N 36°35' W 031°41'1 1.0 21.3
2017-Nov-15 19:00N 36°35' W 031°42'0 0.0 21.3
2017-Nov-15 18:00N 36°35' W 031°42'1 1.0 21.3
2017-Nov-15 17:00N 36°35' W 031°41'0 0.0 21.3
2017-Nov-15 16:00N 36°35' W 031°41'0 0.0 21.3
2017-Nov-15 15:00N 36°35' W 031°41'1 0.6 21.3
2017-Nov-15 13:00N 36°36' W 031°40'0 0.0 21.2
2017-Nov-15 12:00N 36°36' W 031°40'1 0.8 21.2
2017-Nov-15 11:00N 36°37' W 031°40'0 0.0 21.2
2017-Nov-15 10:00N 36°37' W 031°40'1 1.0 21.2
2017-Nov-15 09:00N 36°37' W 031°39'0 0.0 21.2
2017-Nov-15 07:00N 36°37' W 031°39'1 0.8 21.2
2017-Nov-15 06:00N 36°37' W 031°38'0 0.0 21.2
2017-Nov-15 05:00N 36°37' W 031°38'2 2.4 21.2
2017-Nov-15 04:00N 36°40' W 031°38'0 0.0 21.2
2017-Nov-15 00:00N 36°40' W 031°38'1 1.1 21.3
2017-Nov-14 23:00N 36°40' W 031°37'1 0.8 21.3
2017-Nov-14 22:00N 36°41' W 031°36'2 1.5 21.4
2017-Nov-14 21:00N 36°40' W 031°37'0 0.0 21.5
2017-Nov-14 20:00N 36°40' W 031°37'0 0.0 21.6
2017-Nov-14 19:00N 36°40' W 031°37'1 0.8 21.8
2017-Nov-14 18:00N 36°39' W 031°37'0 0.0 21.9
2017-Nov-14 17:00N 36°39' W 031°37'1 0.6 22.3
2017-Nov-14 16:00N 36°40' W 031°37'0 0.0 22.2
2017-Nov-14 15:00N 36°40' W 031°37'2 1.0 21.9
2017-Nov-14 13:00N 36°40' W 031°34'0 0.5 21.3
2017-Nov-14 12:00N 36°40' W 031°34'2 1.5 21.2
2017-Nov-14 11:00N 36°41' W 031°32'0 0.0 21.2
2017-Nov-14 10:00N 36°41' W 031°32'1 1.0 21.2
2017-Nov-14 09:00N 36°41' W 031°34'1 1.0 21.2
2017-Nov-14 08:00N 36°41' W 031°32'0 0.0 21.2
2017-Nov-14 07:00N 36°41' W 031°32'0 0.5 21.2
2017-Nov-14 06:00N 36°41' W 031°33'1 0.5 21.2
2017-Nov-14 04:00N 36°41' W 031°32'0 0.0 21.2
2017-Nov-14 00:00N 36°41' W 031°32'1 0.6 21.2
2017-Nov-13 23:00N 36°42' W 031°32'1 1.3 21.2
2017-Nov-13 22:00N 36°41' W 031°31'1 0.6 21.2
2017-Nov-13 21:00N 36°41' W 031°31'1 0.6 21.2
2017-Nov-13 20:00N 36°41' W 031°31'1 1.1 21.2
2017-Nov-13 19:00N 36°40' W 031°30'1 0.6 21.2
2017-Nov-13 18:00N 36°41' W 031°30'   21.2

Dump ship's entire track history